Time;durP1;ratioP1;P1;durP2;ratioP2;P2;SDS_P1;SDS_P2;PMS_P1;PMS_P2;Temp;Humidity;BMP_temperature;BMP_pressure;BME280_temperature;BME280_humidity;BME280_pressure;Samples;Min_cycle;Max_cycle;Signal;HPM_P1;HPM_P2
2020/12/25 00:00:15;;;;;;;56.15;27.98;;;;;;;6.70;81.29;100320.05;1742622;82;26487;-60
2020/12/25 00:02:44;;;;;;;54.55;28.05;;;;;;;6.69;81.08;100320.15;1825574;78;25882;-59
2020/12/25 00:05:12;;;;;;;49.48;26.05;;;;;;;6.72;81.11;100318.58;1740861;82;27589;-60
2020/12/25 00:07:40;;;;;;;52.73;27.70;;;;;;;6.72;80.91;100315.41;1750768;81;25686;-59
2020/12/25 00:10:08;;;;;;;55.00;27.67;;;;;;;6.73;81.16;100313.10;1764368;81;26161;-59
2020/12/25 00:12:35;;;;;;;55.33;28.30;;;;;;;6.80;81.47;100311.30;1750885;81;25716;-59
2020/12/25 00:15:03;;;;;;;52.60;27.82;;;;;;;6.87;81.40;100307.98;1750986;81;25716;-59
2020/12/25 00:17:31;;;;;;;57.15;27.02;;;;;;;6.94;81.45;100308.84;1724894;81;27525;-59
2020/12/25 00:19:59;;;;;;;47.15;25.60;;;;;;;7.02;81.71;100309.91;1702348;83;25666;-59
2020/12/25 00:22:27;;;;;;;48.28;26.37;;;;;;;7.07;81.47;100309.54;1732336;82;25736;-59
2020/12/25 00:24:56;;;;;;;47.48;25.23;;;;;;;7.14;81.24;100316.08;1733476;82;25695;-60
2020/12/25 00:27:25;;;;;;;46.08;25.05;;;;;;;7.05;80.43;100317.70;1733477;82;25711;-59
2020/12/25 00:29:54;;;;;;;55.80;27.17;;;;;;;7.00;80.52;100302.48;1733343;82;26732;-59
2020/12/25 00:32:22;;;;;;;49.93;25.52;;;;;;;7.04;80.91;100299.08;1726856;82;25710;-59
2020/12/25 00:34:49;;;;;;;49.50;25.70;;;;;;;7.07;80.76;100296.66;1720989;83;25677;-59
2020/12/25 00:37:17;;;;;;;50.55;27.13;;;;;;;7.09;80.77;100285.33;1733918;82;25845;-59
2020/12/25 00:39:45;;;;;;;53.78;26.95;;;;;;;7.03;80.40;100286.70;1722540;82;25695;-59
2020/12/25 00:42:13;;;;;;;46.13;25.88;;;;;;;7.03;80.74;100279.52;1749126;82;27720;-59
2020/12/25 00:44:42;;;;;;;56.18;28.38;;;;;;;7.01;80.51;100294.84;1749227;82;25689;-59
2020/12/25 00:47:10;;;;;;;53.13;28.02;;;;;;;6.96;80.53;100293.03;1749347;81;25459;-59
2020/12/25 00:49:38;;;;;;;60.88;29.02;;;;;;;6.96;80.47;100290.83;1749263;82;26573;-59
2020/12/25 00:52:06;;;;;;;60.92;29.80;;;;;;;6.94;80.41;100278.09;1761715;80;26068;-59
2020/12/25 00:54:34;;;;;;;61.98;30.95;;;;;;;6.92;80.46;100278.20;1746621;82;28621;-59
2020/12/25 00:57:04;;;;;;;62.88;28.80;;;;;;;6.89;80.44;100277.13;1829715;78;26299;-59
2020/12/25 00:59:39;;;;;;;51.98;26.57;;;;;;;6.87;80.55;100277.73;1828971;78;25661;-59
2020/12/25 01:02:07;;;;;;;58.05;27.40;;;;;;;6.83;80.35;100278.94;1748771;82;25693;-59
2020/12/25 01:04:35;;;;;;;49.23;25.95;;;;;;;6.75;80.17;100290.28;1829454;78;26140;-59
2020/12/25 01:07:07;;;;;;;51.35;26.05;;;;;;;6.67;79.94;100280.69;1748806;82;27182;-59
2020/12/25 01:09:35;;;;;;;54.20;27.40;;;;;;;6.58;80.02;100272.44;1829321;78;25749;-59
2020/12/25 01:12:04;;;;;;;60.63;29.60;;;;;;;6.49;79.99;100266.48;1726608;82;25649;-59
2020/12/25 01:14:32;;;;;;;52.17;26.42;;;;;;;6.44;80.12;100272.67;1705471;84;25689;-58
2020/12/25 01:17:00;;;;;;;51.45;25.88;;;;;;;6.41;80.34;100272.90;1762514;81;25670;-59
2020/12/25 01:19:28;;;;;;;45.20;24.75;;;;;;;6.37;80.47;100267.45;1762435;81;28990;-58
2020/12/25 01:21:56;;;;;;;50.73;26.62;;;;;;;6.37;80.78;100275.47;1762181;81;25692;-58
2020/12/25 01:24:27;;;;;;;56.18;28.47;;;;;;;6.36;81.63;100273.77;1762331;81;25675;-59
2020/12/25 01:26:55;;;;;;;52.80;26.05;;;;;;;6.28;81.18;100286.88;1762281;81;25663;-59
2020/12/25 01:29:23;;;;;;;64.25;29.35;;;;;;;6.26;82.27;100273.65;1762382;81;25656;-58
2020/12/25 01:31:51;;;;;;;64.35;31.00;;;;;;;6.24;82.86;100279.59;1762475;80;27477;-57
2020/12/25 01:34:21;;;;;;;58.15;31.40;;;;;;;6.23;82.54;100275.22;1760332;81;25702;-58
2020/12/25 01:36:49;;;;;;;78.57;33.25;;;;;;;6.24;82.39;100268.91;1762537;81;25695;-58
2020/12/25 01:39:17;;;;;;;69.97;33.95;;;;;;;6.24;82.41;100267.57;1762612;81;26311;-59
2020/12/25 01:41:45;;;;;;;65.12;29.77;;;;;;;6.29;82.71;100252.52;1789023;80;25699;-58
2020/12/25 01:44:14;;;;;;;64.62;32.10;;;;;;;6.39;83.04;100251.66;1724377;83;27593;-59
2020/12/25 01:46:43;;;;;;;60.50;29.80;;;;;;;6.48;83.02;100246.08;1714498;82;25669;-58
2020/12/25 01:49:12;;;;;;;63.78;30.48;;;;;;;6.56;82.94;100248.98;1762505;81;25645;-59
2020/12/25 01:51:40;;;;;;;59.23;31.20;;;;;;;6.58;82.68;100249.72;1762609;81;25702;-58
2020/12/25 01:54:08;;;;;;;55.65;28.00;;;;;;;6.61;82.44;100243.73;1762503;81;26171;-58
2020/12/25 01:56:37;;;;;;;61.00;29.52;;;;;;;6.64;82.60;100247.02;1791484;78;28406;-58
2020/12/25 01:59:04;;;;;;;53.25;29.50;;;;;;;6.67;82.58;100253.45;1743898;81;26201;-58
2020/12/25 02:01:32;;;;;;;54.38;27.87;;;;;;;6.69;82.26;100253.33;1784519;78;25720;-58
2020/12/25 02:04:01;;;;;;;56.75;29.20;;;;;;;6.67;82.40;100245.94;1779437;80;25963;-58
2020/12/25 02:06:40;;;;;;;57.08;29.42;;;;;;;6.58;81.91;100245.71;1779567;80;25727;-58
2020/12/25 02:09:08;;;;;;;55.48;28.27;;;;;;;6.56;82.12;100258.34;1779510;80;27510;-59
2020/12/25 02:11:37;;;;;;;59.80;29.48;;;;;;;6.61;82.68;100253.09;1779378;80;25640;-58
2020/12/25 02:14:05;;;;;;;61.28;30.57;;;;;;;6.58;82.26;100259.55;1779479;80;25701;-59
2020/12/25 02:16:33;;;;;;;59.73;30.27;;;;;;;6.58;82.34;100257.73;1779365;80;25801;-59
2020/12/25 02:19:01;;;;;;;58.78;30.05;;;;;;;6.63;82.36;100244.00;1779568;80;25654;-58
2020/12/25 02:21:29;;;;;;;60.92;29.92;;;;;;;6.67;82.39;100236.08;1779432;80;28041;-59
2020/12/25 02:23:56;;;;;;;64.90;30.08;;;;;;;6.68;82.29;100232.94;1779488;80;25981;-58
2020/12/25 02:26:24;;;;;;;66.17;31.45;;;;;;;6.70;82.10;100226.49;1803960;78;25498;-58
2020/12/25 02:28:52;;;;;;;61.20;29.92;;;;;;;6.67;82.15;100232.08;1804263;79;26371;-59
2020/12/25 02:31:20;;;;;;;62.58;31.75;;;;;;;6.72;82.45;100220.51;1779466;79;25666;-58
2020/12/25 02:33:48;;;;;;;66.30;32.50;;;;;;;6.69;81.87;100227.93;1779539;80;27534;-58
2020/12/25 02:36:16;;;;;;;61.85;31.07;;;;;;;6.65;82.10;100242.03;1779341;80;25632;-59
2020/12/25 02:38:44;;;;;;;61.68;31.62;;;;;;;6.62;82.27;100250.79;1779473;80;25753;-58
2020/12/25 02:41:12;;;;;;;68.15;31.93;;;;;;;6.52;82.07;100255.53;1799277;79;26488;-58
2020/12/25 02:43:40;;;;;;;65.30;32.55;;;;;;;6.50;82.34;100258.81;1738229;82;26159;-59
2020/12/25 02:46:09;;;;;;;66.37;30.77;;;;;;;6.55;82.68;100250.42;1809622;79;27526;-58
2020/12/25 02:48:36;;;;;;;64.67;32.05;;;;;;;6.61;82.61;100260.64;1809517;79;25856;-59
2020/12/25 02:51:04;;;;;;;68.15;31.65;;;;;;;6.65;82.61;100263.42;1739490;82;25717;-58
2020/12/25 02:53:32;;;;;;;71.00;32.73;;;;;;;6.65;82.27;100259.41;1739688;82;25565;-58
2020/12/25 02:56:00;;;;;;;67.03;32.38;;;;;;;6.68;82.54;100259.17;1739870;82;25712;-58
2020/12/25 02:58:28;;;;;;;73.17;33.70;;;;;;;6.76;82.59;100257.23;1718492;82;28491;-58
2020/12/25 03:00:56;;;;;;;67.65;33.13;;;;;;;6.74;82.16;100261.34;1718289;83;25448;-58
2020/12/25 03:03:24;;;;;;;67.12;32.38;;;;;;;6.68;82.02;100259.17;1718216;83;25754;-58
2020/12/25 03:05:51;;;;;;;66.20;30.70;;;;;;;6.66;81.92;100269.62;1718283;83;26598;-59
2020/12/25 03:08:19;;;;;;;64.25;30.92;;;;;;;6.65;81.85;100271.94;1718217;83;25645;-58
2020/12/25 03:10:47;;;;;;;71.07;32.67;;;;;;;6.54;81.13;100272.30;1718307;83;28441;-59
2020/12/25 03:13:15;;;;;;;78.28;35.88;;;;;;;6.49;81.58;100265.16;1718282;83;26369;-59
2020/12/25 03:15:43;;;;;;;69.58;36.08;;;;;;;6.46;81.70;100261.84;1718284;83;25662;-59
2020/12/25 03:18:11;;;;;;;81.25;38.75;;;;;;;6.45;81.47;100262.34;1718111;83;25726;-59
2020/12/25 03:20:39;;;;;;;73.00;36.20;;;;;;;6.41;81.74;100260.41;1718294;83;25504;-59
2020/12/25 03:23:06;;;;;;;81.47;37.48;;;;;;;6.39;81.69;100268.19;1718436;83;28553;-59
2020/12/25 03:25:34;;;;;;;76.35;35.85;;;;;;;6.35;81.55;100266.25;1718390;83;26301;-59
2020/12/25 03:28:02;;;;;;;81.97;36.58;;;;;;;6.33;81.54;100267.31;1718151;82;25686;-58
2020/12/25 03:30:31;;;;;;;75.87;36.88;;;;;;;6.32;81.57;100262.97;1718008;83;26274;-58
2020/12/25 03:32:59;;;;;;;65.70;31.17;;;;;;;6.27;81.54;100272.69;1718294;83;25550;-59
2020/12/25 03:35:27;;;;;;;61.42;29.27;;;;;;;6.21;81.26;100259.79;1718296;83;28502;-58
2020/12/25 03:37:55;;;;;;;64.10;31.60;;;;;;;6.12;80.67;100258.70;1718177;83;25738;-57
2020/12/25 03:40:23;;;;;;;75.62;32.55;;;;;;;6.03;80.64;100263.43;1718297;83;25699;-58
2020/12/25 03:42:51;;;;;;;71.60;31.23;;;;;;;5.94;80.64;100259.61;1718202;82;25766;-57
2020/12/25 03:45:19;;;;;;;70.40;31.68;;;;;;;5.87;80.81;100270.40;1718516;82;25740;-58
2020/12/25 03:47:47;;;;;;;70.12;32.78;;;;;;;5.83;80.88;100275.13;1718460;82;27342;-58
2020/12/25 03:50:14;;;;;;;74.30;35.05;;;;;;;5.83;81.20;100271.63;1718296;83;25730;-57
2020/12/25 03:52:42;;;;;;;80.47;35.63;;;;;;;5.85;81.47;100280.34;1718042;83;25665;-58
2020/12/25 03:55:11;;;;;;;77.97;33.35;;;;;;;5.85;81.47;100290.55;1718429;83;26392;-58
2020/12/25 03:57:38;;;;;;;78.30;32.23;;;;;;;5.82;81.55;100314.80;1718158;82;25650;-57
2020/12/25 04:00:06;;;;;;;70.37;31.40;;;;;;;5.73;82.46;100314.16;1716603;82;27606;-58
2020/12/25 04:02:35;;;;;;;62.40;28.47;;;;;;;5.63;82.45;100333.53;1736196;82;26309;-58
2020/12/25 04:05:04;;;;;;;73.05;31.20;;;;;;;5.57;83.57;100330.00;1736459;81;26257;-57
2020/12/25 04:07:32;;;;;;;69.80;29.77;;;;;;;5.52;83.02;100340.64;1773365;80;26370;-57
2020/12/25 04:09:59;;;;;;;62.73;28.87;;;;;;;5.53;84.41;100341.85;1773416;80;25574;-58
2020/12/25 04:12:27;;;;;;;60.33;29.67;;;;;;;5.47;83.71;100327.15;1773153;80;28882;-58
2020/12/25 04:14:55;;;;;;;71.20;30.50;;;;;;;5.48;84.55;100336.86;1773262;80;25684;-57
2020/12/25 04:17:23;;;;;;;69.03;30.70;;;;;;;5.44;84.28;100319.39;1773475;79;25784;-57
2020/12/25 04:19:52;;;;;;;67.90;30.72;;;;;;;5.48;84.37;100346.20;1773380;80;26320;-57
2020/12/25 04:22:20;;;;;;;70.65;31.60;;;;;;;5.58;84.41;100341.05;1773427;80;25608;-57
2020/12/25 04:24:48;;;;;;;57.25;29.18;;;;;;;5.67;84.42;100338.16;1773394;80;28566;-57
2020/12/25 04:27:16;;;;;;;67.30;31.35;;;;;;;5.73;84.30;100335.05;1751129;80;26106;-58
2020/12/25 04:29:43;;;;;;;77.25;31.90;;;;;;;5.84;84.37;100339.56;1742493;81;25692;-58
2020/12/25 04:32:12;;;;;;;70.83;32.55;;;;;;;5.94;84.45;100343.70;1742643;82;25712;-57
2020/12/25 04:34:40;;;;;;;73.72;32.42;;;;;;;6.02;84.04;100347.17;1742580;81;25760;-58
2020/12/25 04:37:08;;;;;;;77.82;32.93;;;;;;;6.09;83.95;100350.60;1742578;82;27573;-58
2020/12/25 04:39:38;;;;;;;74.67;32.20;;;;;;;6.15;83.94;100347.91;1742522;82;25678;-58
2020/12/25 04:42:07;;;;;;;80.47;34.20;;;;;;;6.16;83.51;100344.28;1760444;79;25586;-58
2020/12/25 04:44:35;;;;;;;72.92;31.93;;;;;;;6.17;83.27;100344.65;1773196;80;25737;-58
2020/12/25 04:47:10;;;;;;;79.87;33.55;;;;;;;6.17;83.08;100339.80;1773343;80;25643;-58
2020/12/25 04:49:39;;;;;;;75.70;33.92;;;;;;;6.12;83.09;100336.16;1773401;80;27559;-58
2020/12/25 04:52:06;;;;;;;74.62;32.28;;;;;;;6.12;83.20;100333.48;1773298;79;25794;-58
2020/12/25 04:54:35;;;;;;;72.65;31.52;;;;;;;6.14;83.32;100333.36;1773299;80;25671;-58
2020/12/25 04:57:03;;;;;;;78.55;34.35;;;;;;;6.16;83.44;100330.09;1773375;80;25648;-58
2020/12/25 04:59:31;;;;;;;77.87;32.60;;;;;;;6.21;83.57;100331.91;1773430;79;26999;-58
2020/12/25 05:02:02;;;;;;;80.47;34.88;;;;;;;6.28;83.77;100326.95;1773448;80;28356;-58
2020/12/25 05:04:30;;;;;;;77.47;34.78;;;;;;;6.29;83.73;100331.33;1773323;80;25693;-58
2020/12/25 05:07:00;;;;;;;80.32;34.25;;;;;;;6.28;83.55;100326.45;1773337;80;25481;-58
2020/12/25 05:09:29;;;;;;;77.20;32.90;;;;;;;6.32;83.66;100331.09;1743531;80;26470;-58
2020/12/25 05:11:59;;;;;;;81.95;33.18;;;;;;;6.33;83.71;100324.28;1773548;80;25700;-58
2020/12/25 05:14:32;;;;;;;65.40;31.73;;;;;;;6.36;83.87;100321.86;1773188;80;27510;-58
2020/12/25 05:17:01;;;;;;;81.37;34.75;;;;;;;6.36;83.63;100324.05;1773436;80;25660;-59
2020/12/25 05:19:31;;;;;;;72.55;31.85;;;;;;;6.38;83.32;100328.77;1773542;80;25761;-58
2020/12/25 05:22:00;;;;;;;66.80;32.23;;;;;;;6.38;83.36;100332.78;1773628;80;26021;-58
2020/12/25 05:24:38;;;;;;;67.95;32.75;;;;;;;6.47;83.60;100334.36;1769057;80;25654;-58
2020/12/25 05:27:13;;;;;;;75.03;32.90;;;;;;;6.55;83.60;100334.14;1742831;81;28575;-59
2020/12/25 05:29:42;;;;;;;68.40;30.48;;;;;;;6.67;83.77;100350.19;1742750;82;26226;-58
2020/12/25 05:32:12;;;;;;;66.53;30.88;;;;;;;6.76;83.69;100341.91;1742738;82;25703;-58
2020/12/25 05:34:43;;;;;;;73.17;31.07;;;;;;;6.86;83.70;100348.22;1713812;82;27010;-58
2020/12/25 05:37:13;;;;;;;70.37;32.67;;;;;;;6.83;82.95;100359.16;1707050;84;26100;-59
2020/12/25 05:39:42;;;;;;;78.10;31.68;;;;;;;6.83;82.57;100366.70;1752801;80;27512;-58
2020/12/25 05:42:10;;;;;;;93.50;31.77;;;;;;;6.87;82.80;100375.33;1771734;80;25596;-59
2020/12/25 05:44:47;;;;;;;92.25;31.95;;;;;;;6.89;82.85;100368.88;1771727;80;25667;-58
2020/12/25 05:47:18;;;;;;;118.67;34.10;;;;;;;6.91;82.52;100369.25;1771756;80;25548;-59
2020/12/25 05:49:46;;;;;;;111.80;30.50;;;;;;;6.84;82.10;100375.56;1771882;80;25735;-59
2020/12/25 05:52:15;;;;;;;128.68;34.75;;;;;;;6.76;81.53;100373.52;1771669;80;28371;-59
2020/12/25 05:54:45;;;;;;;150.50;31.10;;;;;;;6.64;81.58;100371.80;1771646;80;25633;-59
2020/12/25 05:57:14;;;;;;;164.10;31.35;;;;;;;6.54;81.50;100379.20;1787161;79;25643;-58
2020/12/25 05:59:47;;;;;;;85.53;32.73;;;;;;;6.41;81.58;100374.43;1774544;77;25652;-58
2020/12/25 06:02:16;;;;;;;77.05;30.88;;;;;;;6.24;81.38;100379.27;1830194;78;26138;-58
2020/12/25 06:04:46;;;;;;;62.08;29.37;;;;;;;6.21;82.09;100382.19;1746618;82;28536;-58
2020/12/25 06:07:17;;;;;;;53.75;26.97;;;;;;;6.17;82.04;100369.19;1798137;78;25660;-58
2020/12/25 06:09:49;;;;;;;60.70;26.90;;;;;;;6.09;82.08;100369.30;1828964;78;25737;-58
2020/12/25 06:12:18;;;;;;;51.48;27.58;;;;;;;6.07;82.46;100371.69;1770716;81;25645;-58
2020/12/25 06:14:45;;;;;;;54.10;27.67;;;;;;;6.09;82.58;100377.77;1770647;81;25699;-58
2020/12/25 06:17:20;;;;;;;55.25;28.92;;;;;;;6.12;82.73;100381.56;1770724;81;27534;-58
2020/12/25 06:20:01;;;;;;;52.70;28.20;;;;;;;6.17;82.95;100383.37;1770597;81;25700;-58
2020/12/25 06:22:34;;;;;;;54.08;28.10;;;;;;;6.22;82.90;100390.57;1770661;81;25775;-58
2020/12/25 06:25:06;;;;;;;55.67;28.75;;;;;;;6.28;82.99;100391.89;1771180;79;25715;-58
2020/12/25 06:27:36;;;;;;;57.98;28.40;;;;;;;6.37;83.26;100384.51;1770626;81;25645;-58
2020/12/25 06:30:05;;;;;;;64.55;31.07;;;;;;;6.44;82.85;100393.41;1770575;81;27516;-58
2020/12/25 06:32:33;;;;;;;69.90;30.62;;;;;;;6.41;82.72;100402.02;1770560;80;25639;-57
2020/12/25 06:35:01;;;;;;;59.00;29.45;;;;;;;6.49;83.10;100401.91;1770422;81;25704;-59
2020/12/25 06:37:31;;;;;;;67.17;31.30;;;;;;;6.58;83.30;100403.86;1739589;81;25751;-58
2020/12/25 06:40:07;;;;;;;66.07;30.80;;;;;;;6.63;82.76;100404.38;1770801;79;25913;-58
2020/12/25 06:42:37;;;;;;;65.55;31.35;;;;;;;6.67;82.74;100407.16;1770566;79;27553;-58
2020/12/25 06:45:07;;;;;;;62.80;29.45;;;;;;;6.73;82.86;100397.31;1770683;81;26096;-58
2020/12/25 06:47:38;;;;;;;63.10;30.90;;;;;;;6.78;82.64;100392.94;1740969;81;25471;-58
2020/12/25 06:50:15;;;;;;;73.60;32.20;;;;;;;6.82;82.51;100396.22;1770682;81;25712;-58
2020/12/25 06:52:55;;;;;;;70.28;30.08;;;;;;;6.88;82.60;100391.75;1770518;81;25495;-59
2020/12/25 06:55:25;;;;;;;67.32;31.23;;;;;;;6.87;82.21;100394.89;1770513;81;27449;-59
2020/12/25 06:57:56;;;;;;;65.85;31.80;;;;;;;6.83;81.63;100391.23;1770679;81;25801;-59
2020/12/25 07:00:24;;;;;;;78.25;31.97;;;;;;;6.81;81.83;100402.06;1777938;79;25571;-57
2020/12/25 07:02:54;;;;;;;75.30;33.08;;;;;;;6.81;81.90;100407.41;1787191;80;25656;-58
2020/12/25 07:05:23;;;;;;;73.00;30.12;;;;;;;6.74;81.18;100400.35;1787317;80;25735;-59
2020/12/25 07:07:53;;;;;;;95.10;29.63;;;;;;;6.69;81.08;100396.33;1785452;79;27585;-60
2020/12/25 07:10:20;;;;;;;71.77;32.50;;;;;;;6.52;80.59;100402.52;1787169;80;25616;-59
2020/12/25 07:12:50;;;;;;;75.20;32.33;;;;;;;6.45;81.07;100402.63;1769471;80;25506;-59
2020/12/25 07:15:18;;;;;;;81.63;32.45;;;;;;;6.44;81.49;100404.94;1787171;80;25651;-59
2020/12/25 07:17:46;;;;;;;94.00;36.05;;;;;;;6.46;81.62;100404.34;1787219;79;25682;-59
2020/12/25 07:20:14;;;;;;;96.82;40.20;;;;;;;6.46;81.46;100408.81;1787272;80;27584;-60
2020/12/25 07:22:42;;;;;;;81.40;35.83;;;;;;;6.40;81.46;100404.33;1779317;80;25702;-58
2020/12/25 07:25:10;;;;;;;84.75;37.70;;;;;;;6.39;81.48;100413.80;1771018;80;25719;-58
2020/12/25 07:27:39;;;;;;;83.58;34.27;;;;;;;6.35;81.47;100418.53;1773720;80;26343;-58
2020/12/25 07:30:06;;;;;;;74.62;33.45;;;;;;;6.35;81.84;100419.87;1773652;80;25695;-58
2020/12/25 07:32:34;;;;;;;72.45;33.80;;;;;;;6.39;82.16;100421.81;1773685;80;27447;-58
2020/12/25 07:35:06;;;;;;;70.65;32.85;;;;;;;6.40;81.87;100432.88;1770853;80;25645;-58
2020/12/25 07:37:33;;;;;;;65.57;31.45;;;;;;;6.40;82.03;100440.89;1773624;80;25719;-61
2020/12/25 07:40:06;;;;;;;72.55;32.08;;;;;;;6.45;82.35;100439.20;1773649;79;25603;-59
2020/12/25 07:42:39;;;;;;;68.55;31.60;;;;;;;6.46;82.37;100439.08;1737008;82;25650;-58
2020/12/25 07:45:07;;;;;;;64.20;31.65;;;;;;;6.42;82.26;100449.62;1737106;82;27523;-58
2020/12/25 07:47:39;;;;;;;67.05;31.12;;;;;;;6.47;82.57;100451.47;1736863;82;25735;-58
2020/12/25 07:50:07;;;;;;;80.03;33.33;;;;;;;6.48;82.38;100457.66;1736894;82;25725;-58
2020/12/25 07:52:35;;;;;;;71.50;31.90;;;;;;;6.49;82.39;100460.23;1736836;82;25538;-58
2020/12/25 07:55:05;;;;;;;71.85;34.05;;;;;;;6.57;82.82;100464.97;1735860;82;25718;-59
2020/12/25 07:57:37;;;;;;;81.10;36.50;;;;;;;6.71;83.08;100463.91;1718496;83;28485;-58
2020/12/25 08:00:05;;;;;;;80.90;35.90;;;;;;;6.80;82.76;100461.85;1736607;82;25703;-59
2020/12/25 08:02:35;;;;;;;76.57;34.48;;;;;;;6.88;82.60;100478.65;1739620;82;25667;-58
2020/12/25 08:05:09;;;;;;;74.82;35.03;;;;;;;6.86;82.33;100485.43;1779381;79;25684;-58
2020/12/25 08:07:42;;;;;;;79.32;34.90;;;;;;;6.87;82.14;100491.15;1779334;80;25924;-59
2020/12/25 08:10:17;;;;;;;71.05;33.23;;;;;;;6.87;81.82;100483.63;1783926;79;27512;-59
2020/12/25 08:12:51;;;;;;;70.50;32.93;;;;;;;6.86;81.61;100466.71;1730973;82;25694;-58
2020/12/25 08:15:20;;;;;;;77.10;34.67;;;;;;;6.91;81.93;100470.86;1772991;79;25814;-58
2020/12/25 08:17:52;;;;;;;67.47;32.03;;;;;;;6.97;82.04;100469.04;1813957;78;25627;-58
2020/12/25 08:20:25;;;;;;;70.90;33.25;;;;;;;6.95;81.29;100472.34;1824139;78;25440;-58
2020/12/25 08:23:00;;;;;;;63.92;30.80;;;;;;;6.92;81.47;100477.42;1779331;80;28641;-59
2020/12/25 08:25:31;;;;;;;58.63;29.90;;;;;;;6.98;81.54;100488.13;1779237;80;26067;-61
2020/12/25 08:28:00;;;;;;;55.52;26.90;;;;;;;7.07;82.03;100495.44;1779455;80;25722;-59
2020/12/25 08:30:28;;;;;;;56.42;28.07;;;;;;;7.14;81.71;100487.78;1779317;80;25675;-59
2020/12/25 08:33:00;;;;;;;56.63;28.27;;;;;;;7.17;81.89;100481.70;1779388;80;26241;-59
2020/12/25 08:35:30;;;;;;;50.90;24.63;;;;;;;7.16;81.08;100476.48;1779388;80;27592;-59
2020/12/25 08:38:03;;;;;;;56.25;26.95;;;;;;;7.11;80.94;100484.87;1779242;80;26149;-59
2020/12/25 08:40:37;;;;;;;59.73;28.07;;;;;;;7.09;81.14;100484.60;1783137;79;32566;-59
2020/12/25 08:43:09;;;;;;;58.13;29.02;;;;;;;7.11;81.21;100479.52;1804056;78;25647;-59
2020/12/25 08:45:41;;;;;;;66.62;31.27;;;;;;;7.17;81.76;100476.86;1801443;78;25445;-59
2020/12/25 08:48:12;;;;;;;63.20;29.52;;;;;;;7.24;81.80;100478.06;1778239;80;28504;-59
2020/12/25 08:50:41;;;;;;;60.67;29.30;;;;;;;7.16;80.49;100473.81;1779151;80;25691;-59
2020/12/25 08:53:12;;;;;;;62.73;29.48;;;;;;;7.10;81.13;100480.49;1809766;78;25419;-59
2020/12/25 08:55:41;;;;;;;62.67;29.65;;;;;;;7.11;81.45;100473.30;1810992;79;52960;-59
2020/12/25 08:58:08;;;;;;;63.68;29.90;;;;;;;7.11;80.94;100474.64;1811621;79;26093;-59
2020/12/25 09:00:37;;;;;;;68.37;33.18;;;;;;;6.99;80.48;100475.97;1794516;78;26858;-58
2020/12/25 09:03:05;;;;;;;70.52;31.17;;;;;;;6.89;80.68;100482.53;1773563;80;25676;-59
2020/12/25 09:05:33;;;;;;;63.87;28.80;;;;;;;6.79;80.99;100489.56;1773667;80;25660;-59
2020/12/25 09:08:01;;;;;;;67.55;32.60;;;;;;;6.77;81.33;100488.81;1773545;80;26885;-59
2020/12/25 09:10:29;;;;;;;67.95;31.48;;;;;;;6.72;81.24;100491.84;1773717;80;25714;-59
2020/12/25 09:12:56;;;;;;;66.35;30.23;;;;;;;6.79;81.81;100490.89;1773674;80;28558;-58
2020/12/25 09:15:25;;;;;;;59.65;29.25;;;;;;;6.87;82.09;100495.66;1775325;79;25709;-58
2020/12/25 09:17:52;;;;;;;60.67;29.35;;;;;;;6.93;82.17;100500.52;1797809;79;26639;-59
2020/12/25 09:20:21;;;;;;;63.63;30.27;;;;;;;7.00;82.31;100496.39;1796024;79;25791;-58
2020/12/25 09:22:49;;;;;;;62.13;30.02;;;;;;;7.06;82.26;100511.11;1773393;80;25849;-59
2020/12/25 09:25:17;;;;;;;54.70;28.12;;;;;;;7.12;82.20;100518.68;1785328;79;27501;-59
2020/12/25 09:27:45;;;;;;;57.40;28.92;;;;;;;7.15;81.76;100521.09;1804439;79;25623;-59
2020/12/25 09:30:15;;;;;;;55.50;26.70;;;;;;;7.15;81.52;100510.89;1790367;79;25684;-58
2020/12/25 09:32:43;;;;;;;54.53;27.05;;;;;;;7.12;81.33;100517.34;1785567;78;25615;-58
2020/12/25 09:35:10;;;;;;;56.73;29.30;;;;;;;7.07;81.10;100514.16;1787634;79;25502;-58
2020/12/25 09:37:38;;;;;;;64.82;31.27;;;;;;;7.09;81.45;100506.00;1805232;78;28400;-58
2020/12/25 09:40:08;;;;;;;72.03;31.52;;;;;;;7.12;81.55;100505.77;1782016;79;25431;-58
2020/12/25 09:42:36;;;;;;;69.45;32.50;;;;;;;7.17;81.59;100512.97;1778082;78;25778;-58
2020/12/25 09:45:05;;;;;;;61.85;30.75;;;;;;;7.25;82.01;100515.02;1787823;79;26445;-58
2020/12/25 09:47:33;;;;;;;64.47;31.93;;;;;;;7.32;82.10;100528.27;1780759;79;25616;-58
2020/12/25 09:50:01;;;;;;;63.73;33.02;;;;;;;7.33;81.73;100532.19;1787470;78;27453;-59
2020/12/25 09:52:29;;;;;;;62.03;31.62;;;;;;;7.31;81.50;100538.14;1798482;78;26133;-58
2020/12/25 09:54:57;;;;;;;54.55;29.12;;;;;;;7.33;81.81;100540.69;1801818;79;25698;-58
2020/12/25 09:57:25;;;;;;;47.53;27.32;;;;;;;7.32;81.00;100549.68;1781962;78;26582;-59
2020/12/25 09:59:56;;;;;;;49.15;25.80;;;;;;;7.30;81.04;100551.66;1773549;80;26160;-58
2020/12/25 10:02:25;;;;;;;41.88;24.00;;;;;;;7.30;80.98;100555.66;1780663;79;27498;-58
2020/12/25 10:04:53;;;;;;;41.20;25.35;;;;;;;7.25;80.39;100562.72;1725693;82;25720;-59
2020/12/25 10:07:20;;;;;;;37.42;22.37;;;;;;;7.13;80.27;100565.83;1802025;79;25714;-58
2020/12/25 10:09:50;;;;;;;34.73;21.50;;;;;;;7.04;80.21;100570.55;1798455;79;25622;-58
2020/12/25 10:12:18;;;;;;;35.17;22.67;;;;;;;6.93;80.23;100565.20;1809732;79;25720;-58
2020/12/25 10:14:45;;;;;;;33.15;20.37;;;;;;;6.89;80.53;100558.73;1809682;79;28007;-58
2020/12/25 10:17:13;;;;;;;29.15;19.40;;;;;;;6.86;80.58;100544.26;1738259;82;25688;-58
2020/12/25 10:19:42;;;;;;;32.85;20.62;;;;;;;6.84;80.65;100544.02;1718544;83;25763;-58
2020/12/25 10:22:10;;;;;;;32.60;19.87;;;;;;;6.79;80.84;100548.87;1739888;82;25458;-58
2020/12/25 10:24:38;;;;;;;32.65;19.87;;;;;;;6.79;81.10;100552.89;1724649;82;25647;-58
2020/12/25 10:27:07;;;;;;;31.45;20.00;;;;;;;6.79;81.27;100564.42;1724823;82;28490;-57
2020/12/25 10:29:35;;;;;;;28.12;18.17;;;;;;;6.81;81.17;100561.15;1741708;81;25708;-58
2020/12/25 10:32:03;;;;;;;33.88;20.10;;;;;;;6.80;81.32;100563.95;1727537;82;25759;-58
2020/12/25 10:34:31;;;;;;;32.88;20.02;;;;;;;6.83;81.65;100561.89;1770387;81;25742;-58
2020/12/25 10:37:02;;;;;;;29.75;19.60;;;;;;;6.95;82.24;100568.62;1733637;82;25786;-58
2020/12/25 10:39:30;;;;;;;29.75;18.98;;;;;;;7.03;82.32;100564.37;1738204;82;27546;-58
2020/12/25 10:41:58;;;;;;;43.35;21.77;;;;;;;7.16;82.52;100580.32;1811400;78;25710;-58
2020/12/25 10:44:25;;;;;;;37.45;23.98;;;;;;;7.25;82.29;100588.60;1792860;79;25764;-59
2020/12/25 10:47:00;;;;;;;42.38;25.30;;;;;;;7.28;82.27;100585.70;1779511;80;25926;-58
2020/12/25 10:49:28;;;;;;;48.55;28.70;;;;;;;7.23;82.10;100584.72;1796567;79;25739;-59
2020/12/25 10:51:56;;;;;;;46.65;26.77;;;;;;;7.24;82.54;100574.85;1728947;82;27977;-59
2020/12/25 10:54:24;;;;;;;43.87;25.48;;;;;;;7.29;83.00;100568.67;1792891;78;25805;-58
2020/12/25 10:56:52;;;;;;;47.25;27.05;;;;;;;7.26;82.98;100568.91;1797018;79;25677;-59
2020/12/25 10:59:22;;;;;;;39.45;24.65;;;;;;;7.31;83.77;100563.56;1800982;79;25821;-59
2020/12/25 11:01:50;;;;;;;47.27;28.30;;;;;;;7.39;83.88;100567.45;1791459;79;25935;-58
2020/12/25 11:04:17;;;;;;;47.35;28.55;;;;;;;7.43;83.84;100571.11;1781623;79;27533;-58
2020/12/25 11:06:46;;;;;;;46.28;28.00;;;;;;;7.45;83.76;100572.31;1768484;81;26068;-59
2020/12/25 11:09:14;;;;;;;47.98;27.98;;;;;;;7.50;84.17;100566.97;1768790;81;25699;-59
2020/12/25 11:11:43;;;;;;;44.93;25.25;;;;;;;7.47;83.50;100567.23;1768790;81;26943;-59
2020/12/25 11:14:11;;;;;;;41.70;23.83;;;;;;;7.44;83.62;100561.27;1786116;79;25646;-58
2020/12/25 11:16:39;;;;;;;36.83;23.42;;;;;;;7.49;83.73;100559.91;1783488;79;27333;-58
2020/12/25 11:19:10;;;;;;;34.33;21.85;;;;;;;7.52;83.79;100553.48;1782569;79;25806;-59
2020/12/25 11:21:39;;;;;;;32.10;19.15;;;;;;;7.57;83.87;100552.62;1784424;79;25702;-59
2020/12/25 11:24:08;;;;;;;32.17;19.05;;;;;;;7.62;83.97;100543.72;1785845;79;26883;-59